Creston, Washington
Current Conditions -  °F | °C
As of 8:29 PM on Tuesday 25 Nov 2014 (Local Time) from KSKA Reporting Station
Light Snow Light Snow  
Wind Chill: 27°   Ceiling: 300
Heat Index: 32°   Visibility: 8mi
Dew Point: 32°   Wind: 5mph
Humidity: 100%   Direction: 10°N
Pressure: 30.16"   Gusts: NA
Location:  47.76°N, 118.52°W
Report Text: KSKA 260429Z AUTO 01004KT 8SM -SN OVC003 00/00 A3016 RMK AO2 VIS 1 1/2 RWY23 UPB0359E0403SNB0413RAB0403E0413 CIG 002V004
Loading
Personal Weather Stations






























Interactive Weather Map New forecast layout! Learn more

10-Day Weather Forecast

Advertisements
Track Severe Weather on mobile